sensor_id;sensor_type;location;lat;lon;timestamp;P1;durP1;ratioP1;P2;durP2;ratioP2
37983;SDS011;64625;50.882;4.376;2023-05-10T00:00:57;19.35;;;9.85;;
37983;SDS011;64625;50.882;4.376;2023-05-10T00:03:24;23.42;;;10.55;;
37983;SDS011;64625;50.882;4.376;2023-05-10T00:05:50;29.33;;;8.93;;
37983;SDS011;64625;50.882;4.376;2023-05-10T00:08:15;26.77;;;9.93;;
37983;SDS011;64625;50.882;4.376;2023-05-10T00:10:41;22.55;;;9.65;;
37983;SDS011;64625;50.882;4.376;2023-05-10T00:13:07;23.10;;;11.50;;
37983;SDS011;64625;50.882;4.376;2023-05-10T00:15:33;20.10;;;10.00;;
37983;SDS011;64625;50.882;4.376;2023-05-10T00:17:59;35.13;;;11.30;;
37983;SDS011;64625;50.882;4.376;2023-05-10T00:20:25;26.35;;;11.10;;
37983;SDS011;64625;50.882;4.376;2023-05-10T00:22:51;26.33;;;10.95;;
37983;SDS011;64625;50.882;4.376;2023-05-10T00:25:17;24.60;;;11.35;;
37983;SDS011;64625;50.882;4.376;2023-05-10T00:27:43;33.53;;;11.48;;
37983;SDS011;64625;50.882;4.376;2023-05-10T00:30:09;38.30;;;12.07;;
37983;SDS011;64625;50.882;4.376;2023-05-10T00:32:34;23.65;;;11.07;;
37983;SDS011;64625;50.882;4.376;2023-05-10T00:35:00;29.58;;;12.23;;
37983;SDS011;64625;50.882;4.376;2023-05-10T00:37:26;34.63;;;12.63;;
37983;SDS011;64625;50.882;4.376;2023-05-10T00:39:52;32.60;;;13.80;;
37983;SDS011;64625;50.882;4.376;2023-05-10T00:42:18;30.27;;;12.32;;
37983;SDS011;64625;50.882;4.376;2023-05-10T00:44:44;24.77;;;12.73;;
37983;SDS011;64625;50.882;4.376;2023-05-10T00:47:09;22.10;;;12.88;;
37983;SDS011;64625;50.882;4.376;2023-05-10T00:49:36;28.35;;;11.77;;
37983;SDS011;64625;50.882;4.376;2023-05-10T00:52:03;26.42;;;11.15;;
37983;SDS011;64625;50.882;4.376;2023-05-10T00:54:29;26.83;;;10.73;;
37983;SDS011;64625;50.882;4.376;2023-05-10T00:56:55;26.15;;;11.82;;
37983;SDS011;64625;50.882;4.376;2023-05-10T00:59:22;30.52;;;12.15;;
37983;SDS011;64625;50.882;4.376;2023-05-10T01:01:47;25.08;;;11.10;;
37983;SDS011;64625;50.882;4.376;2023-05-10T01:04:14;29.90;;;12.82;;
37983;SDS011;64625;50.882;4.376;2023-05-10T01:06:40;28.63;;;11.32;;
37983;SDS011;64625;50.882;4.376;2023-05-10T01:09:06;23.33;;;12.13;;
37983;SDS011;64625;50.882;4.376;2023-05-10T01:11:34;25.70;;;11.93;;
37983;SDS011;64625;50.882;4.376;2023-05-10T01:14:01;20.92;;;11.80;;
37983;SDS011;64625;50.882;4.376;2023-05-10T01:16:28;21.65;;;11.05;;
37983;SDS011;64625;50.882;4.376;2023-05-10T01:19:00;35.13;;;11.93;;
37983;SDS011;64625;50.882;4.376;2023-05-10T01:21:33;37.42;;;15.07;;
37983;SDS011;64625;50.882;4.376;2023-05-10T01:24:31;34.40;;;12.35;;
37983;SDS011;64625;50.882;4.376;2023-05-10T01:35:40;25.92;;;14.13;;
37983;SDS011;64625;50.882;4.376;2023-05-10T01:41:08;29.27;;;15.05;;
37983;SDS011;64625;50.882;4.376;2023-05-10T01:43:53;41.35;;;13.90;;
37983;SDS011;64625;50.882;4.376;2023-05-10T01:46:35;30.40;;;14.68;;
37983;SDS011;64625;50.882;4.376;2023-05-10T01:49:03;40.03;;;15.93;;
37983;SDS011;64625;50.882;4.376;2023-05-10T01:51:36;36.30;;;14.43;;
37983;SDS011;64625;50.882;4.376;2023-05-10T01:54:11;35.38;;;15.20;;
37983;SDS011;64625;50.882;4.376;2023-05-10T01:56:39;32.63;;;14.80;;
37983;SDS011;64625;50.882;4.376;2023-05-10T01:59:08;39.88;;;16.45;;
37983;SDS011;64625;50.882;4.376;2023-05-10T02:01:40;35.10;;;14.85;;
37983;SDS011;64625;50.882;4.376;2023-05-10T02:04:09;26.30;;;15.00;;
37983;SDS011;64625;50.882;4.376;2023-05-10T02:06:37;29.25;;;14.35;;
37983;SDS011;64625;50.882;4.376;2023-05-10T02:09:04;34.97;;;14.48;;
37983;SDS011;64625;50.882;4.376;2023-05-10T02:11:32;27.73;;;14.38;;
37983;SDS011;64625;50.882;4.376;2023-05-10T02:13:58;32.28;;;15.00;;
37983;SDS011;64625;50.882;4.376;2023-05-10T02:16:26;40.88;;;16.27;;
37983;SDS011;64625;50.882;4.376;2023-05-10T02:18:56;27.08;;;13.15;;
37983;SDS011;64625;50.882;4.376;2023-05-10T02:21:24;32.28;;;15.70;;
37983;SDS011;64625;50.882;4.376;2023-05-10T02:23:53;34.15;;;15.07;;
37983;SDS011;64625;50.882;4.376;2023-05-10T02:26:22;41.20;;;16.55;;
37983;SDS011;64625;50.882;4.376;2023-05-10T02:28:50;28.50;;;14.50;;
37983;SDS011;64625;50.882;4.376;2023-05-10T02:31:17;42.38;;;15.10;;
37983;SDS011;64625;50.882;4.376;2023-05-10T02:33:44;31.83;;;14.90;;
37983;SDS011;64625;50.882;4.376;2023-05-10T02:36:12;32.63;;;14.93;;
37983;SDS011;64625;50.882;4.376;2023-05-10T02:38:40;28.65;;;14.80;;
37983;SDS011;64625;50.882;4.376;2023-05-10T02:41:07;31.35;;;15.90;;
37983;SDS011;64625;50.882;4.376;2023-05-10T02:43:34;32.63;;;14.18;;
37983;SDS011;64625;50.882;4.376;2023-05-10T02:46:01;32.38;;;14.48;;
37983;SDS011;64625;50.882;4.376;2023-05-10T02:48:28;31.98;;;15.82;;
37983;SDS011;64625;50.882;4.376;2023-05-10T02:50:55;31.42;;;15.02;;
37983;SDS011;64625;50.882;4.376;2023-05-10T02:53:47;28.02;;;16.17;;
37983;SDS011;64625;50.882;4.376;2023-05-10T02:56:15;31.73;;;14.68;;
37983;SDS011;64625;50.882;4.376;2023-05-10T02:58:51;32.28;;;14.18;;
37983;SDS011;64625;50.882;4.376;2023-05-10T03:01:18;33.35;;;14.98;;
37983;SDS011;64625;50.882;4.376;2023-05-10T03:03:44;24.73;;;13.95;;
37983;SDS011;64625;50.882;4.376;2023-05-10T03:06:10;29.88;;;13.68;;
37983;SDS011;64625;50.882;4.376;2023-05-10T03:08:36;32.30;;;15.23;;
37983;SDS011;64625;50.882;4.376;2023-05-10T03:11:16;33.88;;;15.15;;
37983;SDS011;64625;50.882;4.376;2023-05-10T03:13:54;29.77;;;13.23;;
37983;SDS011;64625;50.882;4.376;2023-05-10T03:16:46;28.05;;;14.45;;
37983;SDS011;64625;50.882;4.376;2023-05-10T03:19:17;38.45;;;13.63;;
37983;SDS011;64625;50.882;4.376;2023-05-10T03:21:52;36.72;;;16.77;;
37983;SDS011;64625;50.882;4.376;2023-05-10T03:24:20;31.02;;;15.20;;
37983;SDS011;64625;50.882;4.376;2023-05-10T03:26:48;30.13;;;15.55;;
37983;SDS011;64625;50.882;4.376;2023-05-10T03:29:15;33.97;;;14.82;;
37983;SDS011;64625;50.882;4.376;2023-05-10T03:31:42;26.80;;;16.00;;
37983;SDS011;64625;50.882;4.376;2023-05-10T03:34:08;31.38;;;14.98;;
37983;SDS011;64625;50.882;4.376;2023-05-10T03:36:34;30.90;;;14.02;;
37983;SDS011;64625;50.882;4.376;2023-05-10T03:39:00;31.00;;;14.18;;
37983;SDS011;64625;50.882;4.376;2023-05-10T03:41:26;32.25;;;14.98;;
37983;SDS011;64625;50.882;4.376;2023-05-10T03:43:52;31.67;;;15.20;;
37983;SDS011;64625;50.882;4.376;2023-05-10T03:46:17;43.17;;;15.65;;
37983;SDS011;64625;50.882;4.376;2023-05-10T03:48:43;34.83;;;15.05;;
37983;SDS011;64625;50.882;4.376;2023-05-10T03:51:09;37.20;;;16.92;;
37983;SDS011;64625;50.882;4.376;2023-05-10T03:53:35;30.75;;;15.02;;
37983;SDS011;64625;50.882;4.376;2023-05-10T03:56:01;30.20;;;15.45;;
37983;SDS011;64625;50.882;4.376;2023-05-10T03:58:26;32.47;;;16.98;;
37983;SDS011;64625;50.882;4.376;2023-05-10T04:00:52;32.67;;;16.10;;
37983;SDS011;64625;50.882;4.376;2023-05-10T04:03:18;34.50;;;17.48;;
37983;SDS011;64625;50.882;4.376;2023-05-10T04:05:45;31.98;;;17.02;;
37983;SDS011;64625;50.882;4.376;2023-05-10T04:08:11;35.63;;;16.65;;
37983;SDS011;64625;50.882;4.376;2023-05-10T04:10:36;36.72;;;16.30;;
37983;SDS011;64625;50.882;4.376;2023-05-10T04:13:02;37.72;;;18.35;;
37983;SDS011;64625;50.882;4.376;2023-05-10T04:15:28;44.13;;;19.13;;
37983;SDS011;64625;50.882;4.376;2023-05-10T04:17:54;34.30;;;18.35;;
37983;SDS011;64625;50.882;4.376;2023-05-10T04:20:20;42.92;;;18.83;;
37983;SDS011;64625;50.882;4.376;2023-05-10T04:22:45;43.38;;;20.58;;
37983;SDS011;64625;50.882;4.376;2023-05-10T04:25:11;38.75;;;20.98;;
37983;SDS011;64625;50.882;4.376;2023-05-10T04:27:37;47.03;;;22.88;;
37983;SDS011;64625;50.882;4.376;2023-05-10T04:30:03;42.58;;;20.25;;
37983;SDS011;64625;50.882;4.376;2023-05-10T04:32:29;43.40;;;19.98;;
37983;SDS011;64625;50.882;4.376;2023-05-10T04:34:56;40.38;;;20.55;;
37983;SDS011;64625;50.882;4.376;2023-05-10T04:37:22;41.35;;;20.25;;
37983;SDS011;64625;50.882;4.376;2023-05-10T04:39:48;53.08;;;22.27;;
37983;SDS011;64625;50.882;4.376;2023-05-10T04:42:13;43.58;;;20.83;;
37983;SDS011;64625;50.882;4.376;2023-05-10T04:44:40;40.42;;;20.63;;
37983;SDS011;64625;50.882;4.376;2023-05-10T04:47:06;42.22;;;20.35;;
37983;SDS011;64625;50.882;4.376;2023-05-10T04:49:31;45.63;;;20.00;;
37983;SDS011;64625;50.882;4.376;2023-05-10T04:51:57;39.47;;;20.23;;
37983;SDS011;64625;50.882;4.376;2023-05-10T04:54:23;40.67;;;20.45;;
37983;SDS011;64625;50.882;4.376;2023-05-10T04:56:52;42.55;;;20.17;;
37983;SDS011;64625;50.882;4.376;2023-05-10T04:59:18;40.53;;;20.98;;
37983;SDS011;64625;50.882;4.376;2023-05-10T05:01:44;32.85;;;20.35;;
37983;SDS011;64625;50.882;4.376;2023-05-10T05:04:09;44.22;;;21.65;;
37983;SDS011;64625;50.882;4.376;2023-05-10T05:06:35;50.28;;;21.85;;
37983;SDS011;64625;50.882;4.376;2023-05-10T05:09:01;38.95;;;21.80;;
37983;SDS011;64625;50.882;4.376;2023-05-10T05:11:27;44.13;;;21.27;;
37983;SDS011;64625;50.882;4.376;2023-05-10T05:13:53;42.00;;;22.35;;
37983;SDS011;64625;50.882;4.376;2023-05-10T05:16:19;43.20;;;22.30;;
37983;SDS011;64625;50.882;4.376;2023-05-10T05:18:44;42.95;;;20.65;;
37983;SDS011;64625;50.882;4.376;2023-05-10T05:21:16;37.45;;;20.33;;
37983;SDS011;64625;50.882;4.376;2023-05-10T05:23:43;45.13;;;22.33;;
37983;SDS011;64625;50.882;4.376;2023-05-10T05:26:09;47.83;;;21.58;;
37983;SDS011;64625;50.882;4.376;2023-05-10T05:28:35;44.08;;;21.73;;
37983;SDS011;64625;50.882;4.376;2023-05-10T05:31:06;45.47;;;21.58;;
37983;SDS011;64625;50.882;4.376;2023-05-10T05:33:32;49.22;;;22.50;;
37983;SDS011;64625;50.882;4.376;2023-05-10T05:36:02;40.38;;;21.35;;
37983;SDS011;64625;50.882;4.376;2023-05-10T05:38:28;49.20;;;23.98;;
37983;SDS011;64625;50.882;4.376;2023-05-10T05:40:54;47.78;;;22.98;;
37983;SDS011;64625;50.882;4.376;2023-05-10T05:43:20;50.80;;;22.38;;
37983;SDS011;64625;50.882;4.376;2023-05-10T05:45:46;47.95;;;21.75;;
37983;SDS011;64625;50.882;4.376;2023-05-10T05:48:12;47.85;;;22.15;;
37983;SDS011;64625;50.882;4.376;2023-05-10T05:50:37;58.95;;;24.42;;
37983;SDS011;64625;50.882;4.376;2023-05-10T05:53:03;43.78;;;22.10;;
37983;SDS011;64625;50.882;4.376;2023-05-10T05:55:29;56.85;;;25.65;;
37983;SDS011;64625;50.882;4.376;2023-05-10T05:57:56;47.90;;;23.52;;
37983;SDS011;64625;50.882;4.376;2023-05-10T06:00:23;38.38;;;20.75;;
37983;SDS011;64625;50.882;4.376;2023-05-10T06:02:49;33.65;;;18.70;;
37983;SDS011;64625;50.882;4.376;2023-05-10T06:05:14;30.02;;;18.25;;
37983;SDS011;64625;50.882;4.376;2023-05-10T06:07:40;37.20;;;16.58;;
37983;SDS011;64625;50.882;4.376;2023-05-10T06:10:09;37.55;;;17.67;;
37983;SDS011;64625;50.882;4.376;2023-05-10T06:12:35;29.67;;;17.58;;
37983;SDS011;64625;50.882;4.376;2023-05-10T06:15:02;28.15;;;16.83;;
37983;SDS011;64625;50.882;4.376;2023-05-10T06:17:28;41.88;;;18.75;;
37983;SDS011;64625;50.882;4.376;2023-05-10T06:19:54;37.80;;;18.75;;
37983;SDS011;64625;50.882;4.376;2023-05-10T06:22:22;34.13;;;17.40;;
37983;SDS011;64625;50.882;4.376;2023-05-10T06:24:48;37.63;;;16.48;;
37983;SDS011;64625;50.882;4.376;2023-05-10T06:27:14;37.08;;;17.77;;
37983;SDS011;64625;50.882;4.376;2023-05-10T06:29:40;38.92;;;17.33;;
37983;SDS011;64625;50.882;4.376;2023-05-10T06:32:06;39.28;;;19.00;;
37983;SDS011;64625;50.882;4.376;2023-05-10T06:34:32;37.72;;;18.58;;
37983;SDS011;64625;50.882;4.376;2023-05-10T06:36:58;36.40;;;18.20;;
37983;SDS011;64625;50.882;4.376;2023-05-10T06:39:24;44.05;;;19.92;;
37983;SDS011;64625;50.882;4.376;2023-05-10T06:41:50;46.90;;;22.05;;
37983;SDS011;64625;50.882;4.376;2023-05-10T06:44:16;46.35;;;19.27;;
37983;SDS011;64625;50.882;4.376;2023-05-10T06:46:42;31.45;;;19.23;;
37983;SDS011;64625;50.882;4.376;2023-05-10T06:49:07;30.98;;;15.45;;
37983;SDS011;64625;50.882;4.376;2023-05-10T06:51:33;22.05;;;13.32;;
37983;SDS011;64625;50.882;4.376;2023-05-10T06:53:59;21.70;;;12.20;;
37983;SDS011;64625;50.882;4.376;2023-05-10T06:56:25;23.35;;;11.70;;
37983;SDS011;64625;50.882;4.376;2023-05-10T06:58:51;26.95;;;9.90;;
37983;SDS011;64625;50.882;4.376;2023-05-10T07:01:16;19.65;;;9.40;;
37983;SDS011;64625;50.882;4.376;2023-05-10T07:03:42;29.08;;;12.77;;
37983;SDS011;64625;50.882;4.376;2023-05-10T07:06:08;29.27;;;13.50;;
37983;SDS011;64625;50.882;4.376;2023-05-10T07:08:34;31.23;;;13.23;;
37983;SDS011;64625;50.882;4.376;2023-05-10T07:11:03;40.53;;;14.98;;
37983;SDS011;64625;50.882;4.376;2023-05-10T07:13:32;36.80;;;14.32;;
37983;SDS011;64625;50.882;4.376;2023-05-10T07:15:59;34.78;;;13.57;;
37983;SDS011;64625;50.882;4.376;2023-05-10T07:18:25;32.97;;;13.55;;
37983;SDS011;64625;50.882;4.376;2023-05-10T07:20:51;33.47;;;13.80;;
37983;SDS011;64625;50.882;4.376;2023-05-10T07:23:17;29.08;;;14.93;;
37983;SDS011;64625;50.882;4.376;2023-05-10T07:25:47;40.10;;;16.02;;
37983;SDS011;64625;50.882;4.376;2023-05-10T07:28:14;34.35;;;15.95;;
37983;SDS011;64625;50.882;4.376;2023-05-10T07:30:41;36.67;;;15.07;;
37983;SDS011;64625;50.882;4.376;2023-05-10T07:33:08;39.00;;;15.60;;
37983;SDS011;64625;50.882;4.376;2023-05-10T07:35:35;33.03;;;14.63;;
37983;SDS011;64625;50.882;4.376;2023-05-10T07:38:01;44.50;;;17.33;;
37983;SDS011;64625;50.882;4.376;2023-05-10T07:40:27;54.63;;;17.30;;
37983;SDS011;64625;50.882;4.376;2023-05-10T07:42:53;39.10;;;15.63;;
37983;SDS011;64625;50.882;4.376;2023-05-10T07:45:19;32.40;;;16.40;;
37983;SDS011;64625;50.882;4.376;2023-05-10T07:47:45;39.92;;;14.25;;
37983;SDS011;64625;50.882;4.376;2023-05-10T07:50:11;26.38;;;13.02;;
37983;SDS011;64625;50.882;4.376;2023-05-10T07:52:37;30.25;;;14.43;;
37983;SDS011;64625;50.882;4.376;2023-05-10T07:55:03;28.58;;;13.25;;
37983;SDS011;64625;50.882;4.376;2023-05-10T07:57:29;26.45;;;11.40;;
37983;SDS011;64625;50.882;4.376;2023-05-10T07:59:55;23.83;;;11.25;;
37983;SDS011;64625;50.882;4.376;2023-05-10T08:02:21;35.03;;;11.98;;
37983;SDS011;64625;50.882;4.376;2023-05-10T08:04:47;35.05;;;12.18;;
37983;SDS011;64625;50.882;4.376;2023-05-10T08:07:13;22.52;;;11.25;;
37983;SDS011;64625;50.882;4.376;2023-05-10T08:09:39;22.60;;;12.35;;
37983;SDS011;64625;50.882;4.376;2023-05-10T08:12:05;26.75;;;11.90;;
37983;SDS011;64625;50.882;4.376;2023-05-10T08:14:31;25.35;;;11.52;;
37983;SDS011;64625;50.882;4.376;2023-05-10T08:16:56;28.15;;;11.98;;
37983;SDS011;64625;50.882;4.376;2023-05-10T08:19:22;26.25;;;12.60;;
37983;SDS011;64625;50.882;4.376;2023-05-10T08:21:48;24.73;;;12.38;;
37983;SDS011;64625;50.882;4.376;2023-05-10T08:24:14;27.75;;;11.15;;
37983;SDS011;64625;50.882;4.376;2023-05-10T08:26:41;27.10;;;12.23;;
37983;SDS011;64625;50.882;4.376;2023-05-10T08:29:06;20.15;;;10.27;;
37983;SDS011;64625;50.882;4.376;2023-05-10T08:31:32;18.33;;;9.82;;
37983;SDS011;64625;50.882;4.376;2023-05-10T08:34:00;18.00;;;9.77;;
37983;SDS011;64625;50.882;4.376;2023-05-10T08:36:26;17.23;;;9.38;;
37983;SDS011;64625;50.882;4.376;2023-05-10T08:38:53;15.63;;;9.50;;
37983;SDS011;64625;50.882;4.376;2023-05-10T08:41:19;17.17;;;9.32;;
37983;SDS011;64625;50.882;4.376;2023-05-10T08:43:46;17.10;;;7.85;;
37983;SDS011;64625;50.882;4.376;2023-05-10T08:46:15;13.65;;;8.52;;
37983;SDS011;64625;50.882;4.376;2023-05-10T08:48:44;19.45;;;8.15;;
37983;SDS011;64625;50.882;4.376;2023-05-10T08:51:15;22.05;;;8.73;;
37983;SDS011;64625;50.882;4.376;2023-05-10T08:53:44;17.90;;;11.98;;
37983;SDS011;64625;50.882;4.376;2023-05-10T08:56:10;16.15;;;10.32;;
37983;SDS011;64625;50.882;4.376;2023-05-10T08:58:37;14.98;;;8.95;;
37983;SDS011;64625;50.882;4.376;2023-05-10T09:01:03;18.45;;;8.27;;
37983;SDS011;64625;50.882;4.376;2023-05-10T09:03:30;11.70;;;8.57;;
37983;SDS011;64625;50.882;4.376;2023-05-10T09:05:57;16.58;;;8.15;;
37983;SDS011;64625;50.882;4.376;2023-05-10T09:08:24;18.98;;;9.48;;
37983;SDS011;64625;50.882;4.376;2023-05-10T09:10:51;16.83;;;8.85;;
37983;SDS011;64625;50.882;4.376;2023-05-10T09:13:18;12.90;;;8.20;;
37983;SDS011;64625;50.882;4.376;2023-05-10T09:15:46;14.45;;;8.25;;
37983;SDS011;64625;50.882;4.376;2023-05-10T09:18:13;18.52;;;9.07;;
37983;SDS011;64625;50.882;4.376;2023-05-10T09:20:39;16.05;;;7.85;;
37983;SDS011;64625;50.882;4.376;2023-05-10T09:23:05;16.17;;;9.18;;
37983;SDS011;64625;50.882;4.376;2023-05-10T09:25:32;17.75;;;8.80;;
37983;SDS011;64625;50.882;4.376;2023-05-10T09:28:02;15.88;;;9.27;;
37983;SDS011;64625;50.882;4.376;2023-05-10T09:32:59;15.93;;;8.00;;
37983;SDS011;64625;50.882;4.376;2023-05-10T09:35:26;15.95;;;7.78;;
37983;SDS011;64625;50.882;4.376;2023-05-10T09:37:56;14.60;;;8.07;;
37983;SDS011;64625;50.882;4.376;2023-05-10T09:40:28;19.70;;;8.73;;
37983;SDS011;64625;50.882;4.376;2023-05-10T09:45:26;17.13;;;10.05;;
37983;SDS011;64625;50.882;4.376;2023-05-10T09:47:53;14.32;;;8.43;;
37983;SDS011;64625;50.882;4.376;2023-05-10T09:50:20;12.25;;;8.38;;
37983;SDS011;64625;50.882;4.376;2023-05-10T09:55:20;13.77;;;8.52;;
37983;SDS011;64625;50.882;4.376;2023-05-10T09:57:48;10.93;;;7.10;;
37983;SDS011;64625;50.882;4.376;2023-05-10T10:00:23;18.98;;;8.38;;
37983;SDS011;64625;50.882;4.376;2023-05-10T10:02:55;18.63;;;8.52;;
37983;SDS011;64625;50.882;4.376;2023-05-10T10:08:21;13.05;;;8.20;;
37983;SDS011;64625;50.882;4.376;2023-05-10T10:10:47;12.00;;;7.40;;
37983;SDS011;64625;50.882;4.376;2023-05-10T10:13:13;9.77;;;7.25;;
37983;SDS011;64625;50.882;4.376;2023-05-10T10:15:40;12.25;;;7.55;;
37983;SDS011;64625;50.882;4.376;2023-05-10T10:18:12;11.23;;;6.82;;
37983;SDS011;64625;50.882;4.376;2023-05-10T10:20:40;11.27;;;7.03;;
37983;SDS011;64625;50.882;4.376;2023-05-10T10:23:07;9.57;;;7.53;;
37983;SDS011;64625;50.882;4.376;2023-05-10T10:25:33;18.27;;;10.07;;
37983;SDS011;64625;50.882;4.376;2023-05-10T10:28:07;11.52;;;8.77;;
37983;SDS011;64625;50.882;4.376;2023-05-10T10:30:48;11.18;;;7.47;;
37983;SDS011;64625;50.882;4.376;2023-05-10T10:36:12;12.48;;;7.70;;
37983;SDS011;64625;50.882;4.376;2023-05-10T10:52:27;15.23;;;7.82;;
37983;SDS011;64625;50.882;4.376;2023-05-10T10:57:42;9.77;;;6.53;;
37983;SDS011;64625;50.882;4.376;2023-05-10T11:00:19;11.38;;;7.07;;
37983;SDS011;64625;50.882;4.376;2023-05-10T11:02:57;14.63;;;7.78;;
37983;SDS011;64625;50.882;4.376;2023-05-10T11:11:09;8.57;;;6.47;;
37983;SDS011;64625;50.882;4.376;2023-05-10T11:13:43;15.07;;;7.97;;
37983;SDS011;64625;50.882;4.376;2023-05-10T11:18:37;15.73;;;8.20;;
37983;SDS011;64625;50.882;4.376;2023-05-10T11:21:03;11.02;;;7.78;;
37983;SDS011;64625;50.882;4.376;2023-05-10T11:23:31;12.68;;;7.72;;
37983;SDS011;64625;50.882;4.376;2023-05-10T11:25:58;10.90;;;8.30;;
37983;SDS011;64625;50.882;4.376;2023-05-10T11:28:26;11.38;;;6.82;;
37983;SDS011;64625;50.882;4.376;2023-05-10T11:30:53;9.93;;;6.70;;
37983;SDS011;64625;50.882;4.376;2023-05-10T11:33:20;13.35;;;6.78;;
37983;SDS011;64625;50.882;4.376;2023-05-10T11:35:48;10.85;;;7.70;;
37983;SDS011;64625;50.882;4.376;2023-05-10T11:38:14;8.52;;;7.25;;
37983;SDS011;64625;50.882;4.376;2023-05-10T11:40:40;19.13;;;7.70;;
37983;SDS011;64625;50.882;4.376;2023-05-10T11:43:07;15.57;;;9.20;;
37983;SDS011;64625;50.882;4.376;2023-05-10T11:45:35;14.40;;;9.18;;
37983;SDS011;64625;50.882;4.376;2023-05-10T11:48:01;13.32;;;8.43;;
37983;SDS011;64625;50.882;4.376;2023-05-10T11:50:27;14.02;;;9.20;;
37983;SDS011;64625;50.882;4.376;2023-05-10T11:52:56;11.63;;;7.93;;
37983;SDS011;64625;50.882;4.376;2023-05-10T11:55:23;8.27;;;6.38;;
37983;SDS011;64625;50.882;4.376;2023-05-10T11:57:59;13.48;;;8.70;;
37983;SDS011;64625;50.882;4.376;2023-05-10T12:00:26;11.38;;;8.38;;
37983;SDS011;64625;50.882;4.376;2023-05-10T12:02:52;10.60;;;7.65;;
37983;SDS011;64625;50.882;4.376;2023-05-10T12:05:18;12.52;;;8.02;;
37983;SDS011;64625;50.882;4.376;2023-05-10T12:07:44;9.02;;;6.25;;
37983;SDS011;64625;50.882;4.376;2023-05-10T12:10:11;11.15;;;6.55;;
37983;SDS011;64625;50.882;4.376;2023-05-10T12:12:44;13.60;;;6.57;;
37983;SDS011;64625;50.882;4.376;2023-05-10T12:15:20;11.43;;;7.50;;
37983;SDS011;64625;50.882;4.376;2023-05-10T12:17:47;10.85;;;8.18;;
37983;SDS011;64625;50.882;4.376;2023-05-10T12:20:17;11.77;;;7.43;;
37983;SDS011;64625;50.882;4.376;2023-05-10T12:22:53;13.40;;;7.80;;
37983;SDS011;64625;50.882;4.376;2023-05-10T12:25:24;10.50;;;7.93;;
37983;SDS011;64625;50.882;4.376;2023-05-10T12:27:58;14.85;;;8.23;;
37983;SDS011;64625;50.882;4.376;2023-05-10T12:30:30;11.85;;;8.05;;
37983;SDS011;64625;50.882;4.376;2023-05-10T12:33:10;16.83;;;7.93;;
37983;SDS011;64625;50.882;4.376;2023-05-10T12:35:50;13.63;;;8.40;;
37983;SDS011;64625;50.882;4.376;2023-05-10T12:38:28;11.57;;;8.88;;
37983;SDS011;64625;50.882;4.376;2023-05-10T12:40:57;12.95;;;8.20;;
37983;SDS011;64625;50.882;4.376;2023-05-10T12:43:28;17.05;;;9.35;;
37983;SDS011;64625;50.882;4.376;2023-05-10T12:45:54;15.95;;;8.30;;
37983;SDS011;64625;50.882;4.376;2023-05-10T12:48:20;11.80;;;6.28;;
37983;SDS011;64625;50.882;4.376;2023-05-10T12:50:46;13.60;;;7.15;;
37983;SDS011;64625;50.882;4.376;2023-05-10T12:53:13;11.93;;;7.22;;
37983;SDS011;64625;50.882;4.376;2023-05-10T12:55:43;11.40;;;6.22;;
37983;SDS011;64625;50.882;4.376;2023-05-10T12:58:12;11.80;;;6.38;;
37983;SDS011;64625;50.882;4.376;2023-05-10T13:00:39;10.52;;;5.53;;
37983;SDS011;64625;50.882;4.376;2023-05-10T13:03:05;11.98;;;7.63;;
37983;SDS011;64625;50.882;4.376;2023-05-10T13:05:31;13.32;;;6.72;;
37983;SDS011;64625;50.882;4.376;2023-05-10T13:07:58;10.80;;;6.07;;
37983;SDS011;64625;50.882;4.376;2023-05-10T13:10:24;11.05;;;5.47;;
37983;SDS011;64625;50.882;4.376;2023-05-10T13:12:50;19.50;;;5.85;;
37983;SDS011;64625;50.882;4.376;2023-05-10T13:15:16;6.68;;;4.82;;
37983;SDS011;64625;50.882;4.376;2023-05-10T13:17:42;10.70;;;5.50;;
37983;SDS011;64625;50.882;4.376;2023-05-10T13:20:08;9.50;;;5.20;;
37983;SDS011;64625;50.882;4.376;2023-05-10T13:22:35;7.68;;;4.68;;
37983;SDS011;64625;50.882;4.376;2023-05-10T13:25:01;7.60;;;5.43;;
37983;SDS011;64625;50.882;4.376;2023-05-10T13:27:27;10.32;;;5.63;;
37983;SDS011;64625;50.882;4.376;2023-05-10T13:29:53;12.05;;;6.20;;
37983;SDS011;64625;50.882;4.376;2023-05-10T13:32:20;13.98;;;7.07;;
37983;SDS011;64625;50.882;4.376;2023-05-10T13:34:46;15.73;;;6.07;;
37983;SDS011;64625;50.882;4.376;2023-05-10T13:37:12;14.32;;;7.10;;
37983;SDS011;64625;50.882;4.376;2023-05-10T13:39:38;9.43;;;6.43;;
37983;SDS011;64625;50.882;4.376;2023-05-10T13:42:04;12.30;;;6.70;;
37983;SDS011;64625;50.882;4.376;2023-05-10T13:44:30;9.77;;;6.40;;
37983;SDS011;64625;50.882;4.376;2023-05-10T13:46:58;9.77;;;6.43;;
37983;SDS011;64625;50.882;4.376;2023-05-10T13:49:24;13.80;;;5.90;;
37983;SDS011;64625;50.882;4.376;2023-05-10T13:51:50;9.15;;;6.03;;
37983;SDS011;64625;50.882;4.376;2023-05-10T13:54:18;10.75;;;6.20;;
37983;SDS011;64625;50.882;4.376;2023-05-10T13:56:45;11.60;;;7.60;;
37983;SDS011;64625;50.882;4.376;2023-05-10T13:59:12;13.02;;;7.88;;
37983;SDS011;64625;50.882;4.376;2023-05-10T14:01:39;13.68;;;7.75;;
37983;SDS011;64625;50.882;4.376;2023-05-10T14:04:05;15.07;;;9.10;;
37983;SDS011;64625;50.882;4.376;2023-05-10T14:06:36;16.92;;;9.80;;
37983;SDS011;64625;50.882;4.376;2023-05-10T14:09:02;15.27;;;10.05;;
37983;SDS011;64625;50.882;4.376;2023-05-10T14:11:28;13.00;;;8.50;;
37983;SDS011;64625;50.882;4.376;2023-05-10T14:13:54;11.50;;;7.85;;
37983;SDS011;64625;50.882;4.376;2023-05-10T14:16:20;15.38;;;9.52;;
37983;SDS011;64625;50.882;4.376;2023-05-10T14:18:47;15.48;;;9.35;;
37983;SDS011;64625;50.882;4.376;2023-05-10T14:21:12;15.02;;;10.15;;
37983;SDS011;64625;50.882;4.376;2023-05-10T14:23:38;14.82;;;9.80;;
37983;SDS011;64625;50.882;4.376;2023-05-10T14:26:04;14.90;;;10.43;;
37983;SDS011;64625;50.882;4.376;2023-05-10T14:28:31;13.15;;;10.73;;
37983;SDS011;64625;50.882;4.376;2023-05-10T14:30:57;13.57;;;9.18;;
37983;SDS011;64625;50.882;4.376;2023-05-10T14:33:24;19.08;;;10.27;;
37983;SDS011;64625;50.882;4.376;2023-05-10T14:35:50;15.00;;;10.32;;
37983;SDS011;64625;50.882;4.376;2023-05-10T14:38:16;12.90;;;8.40;;
37983;SDS011;64625;50.882;4.376;2023-05-10T14:40:42;20.20;;;8.82;;
37983;SDS011;64625;50.882;4.376;2023-05-10T14:43:08;15.18;;;7.80;;
37983;SDS011;64625;50.882;4.376;2023-05-10T14:45:34;16.45;;;8.95;;
37983;SDS011;64625;50.882;4.376;2023-05-10T14:48:00;20.05;;;9.05;;
37983;SDS011;64625;50.882;4.376;2023-05-10T14:50:29;18.42;;;10.32;;
37983;SDS011;64625;50.882;4.376;2023-05-10T14:52:56;16.35;;;10.02;;
37983;SDS011;64625;50.882;4.376;2023-05-10T14:55:23;16.10;;;8.95;;
37983;SDS011;64625;50.882;4.376;2023-05-10T14:57:49;20.13;;;8.88;;
37983;SDS011;64625;50.882;4.376;2023-05-10T15:00:15;15.55;;;9.55;;
37983;SDS011;64625;50.882;4.376;2023-05-10T15:02:43;20.13;;;8.13;;
37983;SDS011;64625;50.882;4.376;2023-05-10T15:05:09;15.70;;;8.45;;
37983;SDS011;64625;50.882;4.376;2023-05-10T15:07:35;14.68;;;7.68;;
37983;SDS011;64625;50.882;4.376;2023-05-10T15:10:01;11.05;;;7.40;;
37983;SDS011;64625;50.882;4.376;2023-05-10T15:12:27;12.98;;;6.45;;
37983;SDS011;64625;50.882;4.376;2023-05-10T15:14:53;10.95;;;4.80;;
37983;SDS011;64625;50.882;4.376;2023-05-10T15:17:19;9.30;;;3.47;;
37983;SDS011;64625;50.882;4.376;2023-05-10T15:19:45;12.63;;;3.25;;